Time,TemperatureF,DewpointF,PressureIn,WindDirection,WindDirectionDegrees,WindSpeedMPH,WindSpeedGustMPH,Humidity,HourlyPrecipIn,Conditions,Clouds,dailyrainin,SoftwareType,DateUTC
2013-02-17 00:02:00,44.8,32.2,29.99,NE,45,3.0,11.0,61,0.00,,,0.00,Wunderground v.1.15,2013-02-17 08:02:00,
2013-02-17 00:12:00,44.1,32.3,29.99,NE,51,3.0,11.0,63,0.00,,,0.00,Wunderground v.1.15,2013-02-17 08:12:00,
2013-02-17 00:17:00,43.8,32.4,29.99,ENE,63,3.0,11.0,64,0.00,,,0.00,Wunderground v.1.15,2013-02-17 08:17:00,
2013-02-17 00:27:00,43.3,31.9,29.99,NE,51,3.0,11.0,64,0.00,,,0.00,Wunderground v.1.15,2013-02-17 08:27:00,
2013-02-17 00:32:00,43.1,32.1,29.99,ENE,72,3.0,11.0,65,0.00,,,0.00,Wunderground v.1.15,2013-02-17 08:32:00,
2013-02-17 00:42:00,42.7,31.7,29.99,NE,50,4.0,11.0,65,0.00,,,0.00,Wunderground v.1.15,2013-02-17 08:42:00,
2013-02-17 00:47:00,42.9,31.9,29.99,ENE,65,3.0,11.0,65,0.00,,,0.00,Wunderground v.1.15,2013-02-17 08:47:00,
2013-02-17 00:57:00,44.4,31.8,29.99,NE,36,3.0,11.0,61,0.00,,,0.00,Wunderground v.1.15,2013-02-17 08:57:00,
2013-02-17 01:02:00,46.4,30.6,29.99,NE,46,4.0,11.0,54,0.00,,,0.00,Wunderground v.1.15,2013-02-17 09:02:00,
2013-02-17 01:12:00,49.2,29.8,29.99,NNE,20,6.0,11.0,47,0.00,,,0.00,Wunderground v.1.15,2013-02-17 09:12:00,
2013-02-17 01:22:00,49.3,29.4,29.98,ENE,61,6.0,11.0,46,0.00,,,0.00,Wunderground v.1.15,2013-02-17 09:22:00,
2013-02-17 01:32:00,48.8,29.4,29.98,NNE,24,6.0,11.0,47,0.00,,,0.00,Wunderground v.1.15,2013-02-17 09:32:00,
2013-02-17 01:37:00,48.5,29.7,29.98,NNE,27,6.0,11.0,48,0.00,,,0.00,Wunderground v.1.15,2013-02-17 09:37:00,
2013-02-17 01:47:00,48.0,29.7,29.98,North,6,5.0,11.0,49,0.00,,,0.00,Wunderground v.1.15,2013-02-17 09:47:00,
2013-02-17 01:52:00,47.5,29.8,29.97,NE,40,6.0,11.0,50,0.00,,,0.00,Wunderground v.1.15,2013-02-17 09:52:00,
2013-02-17 02:02:00,47.4,29.7,29.97,NNE,33,7.0,11.0,50,0.00,,,0.00,Wunderground v.1.15,2013-02-17 10:02:00,
2013-02-17 02:12:00,47.0,29.8,29.96,NNE,17,7.0,11.0,51,0.00,,,0.00,Wunderground v.1.15,2013-02-17 10:12:00,
2013-02-17 02:22:00,46.8,29.6,29.96,NNE,31,6.0,11.0,51,0.00,,,0.00,Wunderground v.1.15,2013-02-17 10:22:00,
2013-02-17 02:27:00,46.9,29.2,29.96,NE,45,6.0,11.0,50,0.00,,,0.00,Wunderground v.1.15,2013-02-17 10:27:00,
2013-02-17 02:37:00,47.7,28.9,29.96,NE,55,6.0,11.0,48,0.00,,,0.00,Wunderground v.1.15,2013-02-17 10:37:00,
2013-02-17 02:42:00,48.0,28.7,29.96,NNE,16,6.0,11.0,47,0.00,,,0.00,Wunderground v.1.15,2013-02-17 10:42:00,
2013-02-17 02:52:00,47.7,28.9,29.95,NE,49,7.0,11.0,48,0.00,,,0.00,Wunderground v.1.15,2013-02-17 10:52:00,
2013-02-17 02:57:00,47.9,28.6,29.95,ENE,64,6.0,6.0,47,0.00,,,0.00,Wunderground v.1.15,2013-02-17 10:57:00,
2013-02-17 03:07:00,47.7,28.4,29.95,East,91,3.0,3.0,47,0.00,,,0.00,Wunderground v.1.15,2013-02-17 11:07:00,
2013-02-17 03:12:00,47.4,28.2,29.95,NNE,33,2.0,5.0,47,0.00,,,0.00,Wunderground v.1.15,2013-02-17 11:12:00,
2013-02-17 03:22:00,48.3,28.5,29.95,ENE,70,4.0,11.0,46,0.00,,,0.00,Wunderground v.1.15,2013-02-17 11:22:00,
2013-02-17 03:32:00,46.7,28.5,29.95,ESE,105,3.0,11.0,49,0.00,,,0.00,Wunderground v.1.15,2013-02-17 11:32:00,
2013-02-17 03:42:00,46.5,28.3,29.95,East,88,2.0,5.0,49,0.00,,,0.00,Wunderground v.1.15,2013-02-17 11:42:00,
2013-02-17 03:47:00,46.0,28.9,29.95,ESE,105,4.0,11.0,51,0.00,,,0.00,Wunderground v.1.15,2013-02-17 11:47:00,
2013-02-17 03:57:00,44.8,29.2,29.95,East,101,5.0,11.0,54,0.00,,,0.00,Wunderground v.1.15,2013-02-17 11:57:00,
2013-02-17 04:02:00,44.5,28.9,29.95,ESE,110,5.0,11.0,54,0.00,,,0.00,Wunderground v.1.15,2013-02-17 12:02:00,
2013-02-17 04:12:00,44.4,29.2,29.95,ESE,110,4.0,11.0,55,0.00,,,0.00,Wunderground v.1.15,2013-02-17 12:12:00,
2013-02-17 04:22:00,44.3,28.7,29.95,ESE,120,3.0,11.0,54,0.00,,,0.00,Wunderground v.1.15,2013-02-17 12:22:00,
2013-02-17 04:32:00,44.2,28.6,29.95,East,82,5.0,11.0,54,0.00,,,0.00,Wunderground v.1.15,2013-02-17 12:32:00,
2013-02-17 04:37:00,44.5,28.9,29.96,ENE,70,4.0,4.0,54,0.00,,,0.00,Wunderground v.1.15,2013-02-17 12:37:00,
2013-02-17 04:47:00,44.1,28.5,29.96,ESE,107,4.0,11.0,54,0.00,,,0.00,Wunderground v.1.15,2013-02-17 12:47:00,
2013-02-17 04:53:00,44.3,28.2,29.95,East,86,5.0,11.0,53,0.00,,,0.00,Wunderground v.1.15,2013-02-17 12:53:00,
2013-02-17 05:03:00,46.8,27.6,29.96,NNE,30,4.0,11.0,47,0.00,,,0.00,Wunderground v.1.15,2013-02-17 13:03:00,
2013-02-17 05:13:00,46.6,27.9,29.96,ENE,60,3.0,11.0,48,0.00,,,0.00,Wunderground v.1.15,2013-02-17 13:13:00,
2013-02-17 05:18:00,46.9,27.7,29.96,NE,41,3.0,11.0,47,0.00,,,0.00,Wunderground v.1.15,2013-02-17 13:18:00,
2013-02-17 05:28:00,46.6,27.9,29.96,NE,45,4.0,11.0,48,0.00,,,0.00,Wunderground v.1.15,2013-02-17 13:28:00,
2013-02-17 05:33:00,46.6,27.9,29.96,NE,46,5.0,11.0,48,0.00,,,0.00,Wunderground v.1.15,2013-02-17 13:33:00,
2013-02-17 05:43:00,46.3,27.7,29.96,NE,41,6.0,11.0,48,0.00,,,0.00,Wunderground v.1.15,2013-02-17 13:43:00,
2013-02-17 05:53:00,45.9,27.8,29.96,NE,44,5.0,11.0,49,0.00,,,0.00,Wunderground v.1.15,2013-02-17 13:53:00,
2013-02-17 06:03:00,45.1,28.0,29.97,East,100,4.0,11.0,51,0.00,,,0.00,Wunderground v.1.15,2013-02-17 14:03:00,
2013-02-17 06:13:00,44.4,27.4,29.96,NE,44,4.0,11.0,51,0.00,,,0.00,Wunderground v.1.15,2013-02-17 14:13:00,
2013-02-17 06:23:00,44.9,27.4,29.97,NE,44,4.0,11.0,50,0.00,,,0.00,Wunderground v.1.15,2013-02-17 14:23:00,
2013-02-17 06:32:00,44.9,27.4,29.97,NE,36,5.0,11.0,50,0.00,,,0.00,Wunderground v.1.15,2013-02-17 14:32:00,
2013-02-17 06:38:00,45.0,27.5,29.97,NE,56,5.0,11.0,50,0.00,,,0.00,Wunderground v.1.15,2013-02-17 14:38:00,
2013-02-17 06:47:00,45.2,27.6,29.97,NE,48,5.0,5.0,50,0.00,,,0.00,Wunderground v.1.15,2013-02-17 14:47:00,
2013-02-17 06:53:00,44.9,27.4,29.97,NE,41,4.0,11.0,50,0.00,,,0.00,Wunderground v.1.15,2013-02-17 14:53:00,
2013-02-17 07:02:00,44.2,27.7,29.98,NE,48,4.0,11.0,52,0.00,,,0.00,Wunderground v.1.15,2013-02-17 15:02:00,
2013-02-17 07:08:00,44.4,27.4,29.98,NE,53,4.0,4.0,51,0.00,,,0.00,Wunderground v.1.15,2013-02-17 15:08:00,
2013-02-17 07:17:00,44.8,27.3,29.98,NE,49,5.0,11.0,50,0.00,,,0.00,Wunderground v.1.15,2013-02-17 15:17:00,
2013-02-17 07:23:00,45.1,27.6,29.98,NNE,30,5.0,11.0,50,0.00,,,0.00,Wunderground v.1.15,2013-02-17 15:23:00,
2013-02-17 07:32:00,46.1,28.0,29.98,NE,40,5.0,11.0,49,0.00,,,0.00,Wunderground v.1.15,2013-02-17 15:32:00,
2013-02-17 07:38:00,46.6,27.9,29.98,ENE,64,5.0,11.0,48,0.00,,,0.00,Wunderground v.1.15,2013-02-17 15:38:00,
2013-02-17 07:47:00,46.8,27.6,29.98,ENE,59,7.0,11.0,47,0.00,,,0.00,Wunderground v.1.15,2013-02-17 15:47:00,
2013-02-17 07:53:00,47.2,28.0,29.98,East,86,6.0,11.0,47,0.00,,,0.00,Wunderground v.1.15,2013-02-17 15:53:00,
2013-02-17 08:02:00,48.0,28.2,29.98,ENE,58,8.0,11.0,46,0.00,,,0.00,Wunderground v.1.15,2013-02-17 16:02:00,
2013-02-17 08:12:00,48.7,28.8,29.97,NE,53,8.0,11.0,46,0.00,,,0.00,Wunderground v.1.15,2013-02-17 16:12:00,
2013-02-17 08:22:00,49.8,28.7,29.97,NE,50,6.0,11.0,44,0.00,,,0.00,Wunderground v.1.15,2013-02-17 16:22:00,
2013-02-17 08:32:00,50.8,29.6,29.98,ENE,61,6.0,11.0,44,0.00,,,0.00,Wunderground v.1.15,2013-02-17 16:32:00,
2013-02-17 08:42:00,52.3,29.3,29.98,NNE,30,4.0,11.0,41,0.00,,,0.00,Wunderground v.1.15,2013-02-17 16:42:00,
2013-02-17 08:52:00,53.6,29.8,29.98,NE,48,4.0,11.0,40,0.00,,,0.00,Wunderground v.1.15,2013-02-17 16:52:00,
2013-02-17 08:57:00,53.9,29.5,29.98,East,84,4.0,4.0,39,0.00,,,0.00,Wunderground v.1.15,2013-02-17 16:57:00,
2013-02-17 09:07:00,55.4,30.2,29.98,ENE,63,4.0,11.0,38,0.00,,,0.00,Wunderground v.1.15,2013-02-17 17:07:00,
2013-02-17 09:12:00,55.9,30.0,29.98,NE,48,4.0,11.0,37,0.00,,,0.00,Wunderground v.1.15,2013-02-17 17:12:00,
2013-02-17 09:22:00,56.5,29.8,29.98,NE,35,4.0,11.0,36,0.00,,,0.00,Wunderground v.1.15,2013-02-17 17:22:00,
2013-02-17 09:27:00,57.5,30.0,29.98,East,82,3.0,3.0,35,0.00,,,0.00,Wunderground v.1.15,2013-02-17 17:27:00,
2013-02-17 09:37:00,59.1,30.0,29.98,East,86,2.0,11.0,33,0.00,,,0.00,Wunderground v.1.15,2013-02-17 17:37:00,
2013-02-17 09:42:00,59.8,29.9,29.98,NE,43,2.0,11.0,32,0.00,,,0.00,Wunderground v.1.15,2013-02-17 17:42:00,
2013-02-17 09:52:00,61.7,31.5,29.98,East,84,2.0,11.0,32,0.00,,,0.00,Wunderground v.1.15,2013-02-17 17:52:00,
2013-02-17 10:02:00,63.8,30.0,29.97,WSW,238,2.0,11.0,28,0.00,,,0.00,Wunderground v.1.15,2013-02-17 18:02:00,
2013-02-17 10:12:00,63.3,31.3,29.97,SW,229,5.0,11.0,30,0.00,,,0.00,Wunderground v.1.15,2013-02-17 18:12:00,
2013-02-17 10:22:00,63.6,32.4,29.97,WSW,238,7.0,8.0,31,0.00,,,0.00,Wunderground v.1.15,2013-02-17 18:22:00,
2013-02-17 10:32:00,64.1,33.6,29.97,WSW,250,5.0,11.0,32,0.00,,,0.00,Wunderground v.1.15,2013-02-17 18:32:00,
2013-02-17 10:37:00,64.3,34.6,29.96,West,267,6.0,11.0,33,0.00,,,0.00,Wunderground v.1.15,2013-02-17 18:37:00,
2013-02-17 10:47:00,64.9,34.3,29.96,SW,229,7.0,11.0,32,0.00,,,0.00,Wunderground v.1.15,2013-02-17 18:47:00,
2013-02-17 10:52:00,64.8,35.0,29.96,WSW,240,7.0,11.0,33,0.00,,,0.00,Wunderground v.1.15,2013-02-17 18:52:00,
2013-02-17 11:02:00,64.5,35.5,29.96,WSW,253,9.0,12.0,34,0.00,,,0.00,Wunderground v.1.15,2013-02-17 19:02:00,
2013-02-17 11:07:00,64.9,35.8,29.95,WSW,253,8.0,11.0,34,0.00,,,0.00,Wunderground v.1.15,2013-02-17 19:07:00,
2013-02-17 11:17:00,65.2,36.8,29.95,WSW,256,9.0,9.0,35,0.00,,,0.00,Wunderground v.1.15,2013-02-17 19:17:00,
2013-02-17 11:22:00,65.6,38.6,29.95,SW,228,9.0,10.0,37,0.00,,,0.00,Wunderground v.1.15,2013-02-17 19:22:00,
2013-02-17 11:32:00,65.3,39.0,29.95,WSW,253,9.0,11.0,38,0.00,,,0.00,Wunderground v.1.15,2013-02-17 19:32:00,
2013-02-17 11:37:00,65.4,39.8,29.95,SSW,210,9.0,11.0,39,0.00,,,0.00,Wunderground v.1.15,2013-02-17 19:37:00,
2013-02-17 11:47:00,65.9,40.2,29.94,WSW,245,9.0,9.0,39,0.00,,,0.00,Wunderground v.1.15,2013-02-17 19:47:00,
2013-02-17 11:52:00,65.9,41.5,29.94,WSW,249,9.0,10.0,41,0.00,,,0.00,Wunderground v.1.15,2013-02-17 19:52:00,
2013-02-17 12:02:00,65.8,42.7,29.94,West,267,9.0,11.0,43,0.00,,,0.00,Wunderground v.1.15,2013-02-17 20:02:00,
2013-02-17 12:12:00,66.5,43.9,29.93,WSW,249,8.0,11.0,44,0.00,,,0.00,Wunderground v.1.15,2013-02-17 20:12:00,
2013-02-17 12:22:00,66.3,45.5,29.92,West,262,8.0,11.0,47,0.00,,,0.00,Wunderground v.1.15,2013-02-17 20:22:00,
2013-02-17 12:32:00,66.0,46.8,29.92,WSW,256,10.0,11.0,50,0.00,,,0.00,Wunderground v.1.15,2013-02-17 20:32:00,
2013-02-17 12:37:00,65.9,46.2,29.92,WSW,255,10.0,11.0,49,0.00,,,0.00,Wunderground v.1.15,2013-02-17 20:37:00,
2013-02-17 12:47:00,65.6,45.9,29.91,WSW,243,10.0,15.0,49,0.00,,,0.00,Wunderground v.1.15,2013-02-17 20:47:00,
2013-02-17 12:53:00,65.4,45.7,29.91,WSW,249,10.0,15.0,49,0.00,,,0.00,Wunderground v.1.15,2013-02-17 20:53:00,
2013-02-17 13:03:00,65.5,47.4,29.91,WSW,256,10.0,11.0,52,0.00,,,0.00,Wunderground v.1.15,2013-02-17 21:03:00,
2013-02-17 13:08:00,65.2,48.1,29.91,West,264,11.0,11.0,54,0.00,,,0.00,Wunderground v.1.15,2013-02-17 21:08:00,
2013-02-17 13:18:00,65.6,48.5,29.90,WSW,258,10.0,13.0,54,0.00,,,0.00,Wunderground v.1.15,2013-02-17 21:18:00,
2013-02-17 13:28:00,65.6,49.5,29.90,SSW,210,10.0,10.0,56,0.00,,,0.00,Wunderground v.1.15,2013-02-17 21:28:00,
2013-02-17 13:37:00,66.4,49.2,29.90,WSW,238,9.0,11.0,54,0.00,,,0.00,Wunderground v.1.15,2013-02-17 21:37:00,
2013-02-17 13:43:00,66.1,48.5,29.90,West,273,9.0,11.0,53,0.00,,,0.00,Wunderground v.1.15,2013-02-17 21:43:00,
2013-02-17 13:52:00,65.7,49.1,29.90,WSW,238,11.0,14.0,55,0.00,,,0.00,Wunderground v.1.15,2013-02-17 21:52:00,
2013-02-17 13:58:00,65.0,48.9,29.90,WSW,256,11.0,11.0,56,0.00,,,0.00,Wunderground v.1.15,2013-02-17 21:58:00,
2013-02-17 14:07:00,64.9,48.3,29.90,West,267,10.0,10.0,55,0.00,,,0.00,Wunderground v.1.15,2013-02-17 22:07:00,
2013-02-17 14:13:00,64.7,48.2,29.90,West,275,10.0,11.0,55,0.00,,,0.00,Wunderground v.1.15,2013-02-17 22:13:00,
2013-02-17 14:22:00,64.5,48.4,29.90,WSW,238,10.0,12.0,56,0.00,,,0.00,Wunderground v.1.15,2013-02-17 22:22:00,
2013-02-17 14:28:00,64.1,48.5,29.90,WSW,250,10.0,10.0,57,0.00,,,0.00,Wunderground v.1.15,2013-02-17 22:28:00,
2013-02-17 14:38:00,63.8,49.6,29.90,SW,235,9.0,11.0,60,0.00,,,0.00,Wunderground v.1.15,2013-02-17 22:38:00,
2013-02-17 14:47:00,63.7,49.5,29.90,WSW,253,10.0,12.0,60,0.00,,,0.00,Wunderground v.1.15,2013-02-17 22:47:00,
2013-02-17 14:53:00,63.4,49.7,29.90,SSW,204,10.0,12.0,61,0.00,,,0.00,Wunderground v.1.15,2013-02-17 22:53:00,
2013-02-17 15:02:00,63.5,48.9,29.90,SW,224,9.0,12.0,59,0.00,,,0.00,Wunderground v.1.15,2013-02-17 23:02:00,
2013-02-17 15:12:00,63.4,49.7,29.90,SW,227,10.0,15.0,61,0.00,,,0.00,Wunderground v.1.15,2013-02-17 23:12:00,
2013-02-17 15:23:00,62.1,50.2,29.90,West,273,10.0,11.0,65,0.00,,,0.00,Wunderground v.1.15,2013-02-17 23:23:00,
2013-02-17 15:32:00,61.8,50.7,29.90,West,259,10.0,15.0,67,0.00,,,0.00,Wunderground v.1.15,2013-02-17 23:32:00,
2013-02-17 15:42:00,61.6,50.9,29.90,SW,229,9.0,12.0,68,0.00,,,0.00,Wunderground v.1.15,2013-02-17 23:42:00,
2013-02-17 15:52:00,61.2,50.9,29.90,West,269,9.0,11.0,69,0.00,,,0.00,Wunderground v.1.15,2013-02-17 23:52:00,
2013-02-17 15:57:00,61.1,51.2,29.90,West,263,9.0,9.0,70,0.00,,,0.00,Wunderground v.1.15,2013-02-17 23:57:00,
2013-02-17 16:07:00,60.8,51.3,29.90,West,259,8.0,8.0,71,0.00,,,0.00,Wunderground v.1.15,2013-02-18 00:07:00,
2013-02-17 16:12:00,60.4,51.3,29.90,WNW,294,8.0,11.0,72,0.00,,,0.00,Wunderground v.1.15,2013-02-18 00:12:00,
2013-02-17 16:22:00,60.2,51.5,29.90,West,269,7.0,11.0,73,0.00,,,0.00,Wunderground v.1.15,2013-02-18 00:22:00,
2013-02-17 16:27:00,60.3,51.6,29.90,West,281,7.0,11.0,73,0.00,,,0.00,Wunderground v.1.15,2013-02-18 00:27:00,
2013-02-17 16:37:00,60.2,51.5,29.91,WNW,291,7.0,7.0,73,0.00,,,0.00,Wunderground v.1.15,2013-02-18 00:37:00,
2013-02-17 16:42:00,60.1,51.4,29.91,West,263,7.0,8.0,73,0.00,,,0.00,Wunderground v.1.15,2013-02-18 00:42:00,
2013-02-17 16:52:00,59.7,51.4,29.91,West,277,7.0,11.0,74,0.00,,,0.00,Wunderground v.1.15,2013-02-18 00:52:00,
2013-02-17 17:02:00,59.2,51.3,29.91,West,278,7.0,11.0,75,0.00,,,0.00,Wunderground v.1.15,2013-02-18 01:02:00,
2013-02-17 17:12:00,58.4,51.2,29.92,West,259,7.0,11.0,77,0.00,,,0.00,Wunderground v.1.15,2013-02-18 01:12:00,
2013-02-17 17:22:00,57.6,51.1,29.92,West,262,7.0,11.0,79,0.00,,,0.00,Wunderground v.1.15,2013-02-18 01:22:00,
2013-02-17 17:32:00,56.8,51.0,29.92,West,269,8.0,11.0,81,0.00,,,0.00,Wunderground v.1.15,2013-02-18 01:32:00,
2013-02-17 17:42:00,56.3,50.9,29.92,WSW,255,7.0,11.0,82,0.00,,,0.00,Wunderground v.1.15,2013-02-18 01:42:00,
2013-02-17 17:52:00,55.9,50.8,29.93,West,278,7.0,11.0,83,0.00,,,0.00,Wunderground v.1.15,2013-02-18 01:52:00,
2013-02-17 18:02:00,55.5,50.7,29.93,West,259,5.0,11.0,84,0.00,,,0.00,Wunderground v.1.15,2013-02-18 02:02:00,
2013-02-17 18:12:00,55.2,50.4,29.93,West,272,5.0,11.0,84,0.00,,,0.00,Wunderground v.1.15,2013-02-18 02:12:00,
2013-02-17 18:17:00,55.0,50.6,29.93,WSW,243,5.0,5.0,85,0.00,,,0.00,Wunderground v.1.15,2013-02-18 02:17:00,
2013-02-17 18:27:00,54.8,50.4,29.94,WNW,288,4.0,11.0,85,0.00,,,0.00,Wunderground v.1.15,2013-02-18 02:27:00,
2013-02-17 18:32:00,54.6,50.2,29.94,WNW,291,3.0,11.0,85,0.00,,,0.00,Wunderground v.1.15,2013-02-18 02:32:00,
2013-02-17 18:42:00,54.2,50.1,29.94,WNW,287,3.0,11.0,86,0.00,,,0.00,Wunderground v.1.15,2013-02-18 02:42:00,
2013-02-17 18:47:00,54.1,50.0,29.95,West,262,2.0,2.0,86,0.00,,,0.00,Wunderground v.1.15,2013-02-18 02:47:00,
2013-02-17 18:57:00,53.6,49.5,29.95,SE,130,1.0,1.0,86,0.00,,,0.00,Wunderground v.1.15,2013-02-18 02:57:00,
2013-02-17 19:07:00,53.3,49.8,29.95,WSW,253,1.0,11.0,88,0.00,,,0.00,Wunderground v.1.15,2013-02-18 03:07:00,
2013-02-17 19:17:00,53.1,49.6,29.95,West,277,1.0,1.0,88,0.00,,,0.00,Wunderground v.1.15,2013-02-18 03:17:00,
2013-02-17 19:22:00,52.8,49.3,29.96,ENE,67,1.0,11.0,88,0.00,,,0.00,Wunderground v.1.15,2013-02-18 03:22:00,
2013-02-17 19:32:00,51.9,48.2,29.96,ESE,111,0.0,11.0,87,0.00,,,0.00,Wunderground v.1.15,2013-02-18 03:32:00,
2013-02-17 19:37:00,50.9,47.2,29.96,ESE,111,0.0,11.0,87,0.00,,,0.00,Wunderground v.1.15,2013-02-18 03:37:00,
2013-02-17 19:47:00,50.5,47.4,29.97,ESE,111,0.0,11.0,89,0.00,,,0.00,Wunderground v.1.15,2013-02-18 03:47:00,
2013-02-17 19:53:00,50.3,47.2,29.97,ESE,111,0.0,11.0,89,0.00,,,0.00,Wunderground v.1.15,2013-02-18 03:53:00,
2013-02-17 20:03:00,50.1,47.3,29.97,ESE,112,0.0,11.0,90,0.00,,,0.00,Wunderground v.1.15,2013-02-18 04:03:00,
2013-02-17 20:08:00,50.2,47.4,29.97,East,91,0.0,11.0,90,0.00,,,0.00,Wunderground v.1.15,2013-02-18 04:08:00,
2013-02-17 20:18:00,49.9,47.1,29.97,ENE,61,1.0,1.0,90,0.00,,,0.00,Wunderground v.1.15,2013-02-18 04:18:00,
2013-02-17 20:23:00,49.9,47.1,29.97,ENE,61,0.0,11.0,90,0.00,,,0.00,Wunderground v.1.15,2013-02-18 04:23:00,
2013-02-17 20:33:00,50.3,47.5,29.98,East,90,0.0,11.0,90,0.00,,,0.00,Wunderground v.1.15,2013-02-18 04:33:00,
2013-02-17 20:43:00,50.0,47.5,29.99,East,88,0.0,11.0,91,0.00,,,0.00,Wunderground v.1.15,2013-02-18 04:43:00,
2013-02-17 20:53:00,50.5,47.7,29.99,ENE,60,1.0,11.0,90,0.00,,,0.00,Wunderground v.1.15,2013-02-18 04:53:00,
2013-02-17 21:03:00,51.0,48.5,30.00,ENE,77,1.0,11.0,91,0.00,,,0.00,Wunderground v.1.15,2013-02-18 05:03:00,
2013-02-17 21:08:00,51.2,48.7,30.00,ENE,76,0.0,11.0,91,0.00,,,0.00,Wunderground v.1.15,2013-02-18 05:08:00,
2013-02-17 21:12:00,51.3,48.5,30.00,ENE,76,0.0,11.0,90,0.00,,,0.00,Wunderground v.1.15,2013-02-18 05:12:00,
2013-02-17 21:23:00,50.3,47.2,30.01,East,94,2.0,11.0,89,0.00,,,0.00,Wunderground v.1.15,2013-02-18 05:23:00,
2013-02-17 21:32:00,50.3,47.5,30.01,ENE,74,2.0,11.0,90,0.00,,,0.00,Wunderground v.1.15,2013-02-18 05:32:00,
2013-02-17 21:38:00,50.5,47.7,30.01,East,88,2.0,11.0,90,0.00,,,0.00,Wunderground v.1.15,2013-02-18 05:38:00,
2013-02-17 21:47:00,50.5,47.7,30.01,ESE,112,1.0,1.0,90,0.00,,,0.00,Wunderground v.1.15,2013-02-18 05:47:00,
2013-02-17 21:52:00,50.5,47.7,30.01,ESE,111,0.0,11.0,90,0.00,,,0.00,Wunderground v.1.15,2013-02-18 05:52:00,
2013-02-17 22:02:00,50.6,48.1,30.01,ESE,111,0.0,11.0,91,0.00,,,0.00,Wunderground v.1.15,2013-02-18 06:02:00,
2013-02-17 22:12:00,50.7,48.2,30.02,ESE,112,0.0,11.0,91,0.00,,,0.00,Wunderground v.1.15,2013-02-18 06:12:00,
2013-02-17 22:22:00,50.4,47.9,30.02,ESE,112,0.0,11.0,91,0.00,,,0.00,Wunderground v.1.15,2013-02-18 06:22:00,
2013-02-17 22:32:00,50.6,48.4,30.02,ENE,74,0.0,11.0,92,0.00,,,0.00,Wunderground v.1.15,2013-02-18 06:32:00,
2013-02-17 22:42:00,50.0,47.5,30.02,ENE,63,2.0,11.0,91,0.00,,,0.00,Wunderground v.1.15,2013-02-18 06:42:00,
2013-02-17 22:52:00,49.7,47.2,30.02,NE,51,2.0,3.0,91,0.00,,,0.00,Wunderground v.1.15,2013-02-18 06:52:00,
2013-02-17 23:02:00,50.1,47.9,30.02,ENE,57,2.0,11.0,92,0.00,,,0.00,Wunderground v.1.15,2013-02-18 07:02:00,
2013-02-17 23:12:00,50.7,48.2,30.02,ENE,57,0.0,11.0,91,0.00,,,0.00,Wunderground v.1.15,2013-02-18 07:12:00,
2013-02-17 23:17:00,50.9,48.4,30.02,NE,55,0.0,11.0,91,0.00,,,0.00,Wunderground v.1.15,2013-02-18 07:17:00,
2013-02-17 23:27:00,50.6,47.5,30.03,East,96,1.0,11.0,89,0.00,,,0.00,Wunderground v.1.15,2013-02-18 07:27:00,
2013-02-17 23:32:00,50.2,47.4,30.03,East,98,1.0,11.0,90,0.00,,,0.00,Wunderground v.1.15,2013-02-18 07:32:00,
2013-02-17 23:42:00,49.6,46.8,30.03,East,86,1.0,11.0,90,0.00,,,0.00,Wunderground v.1.15,2013-02-18 07:42:00,
2013-02-17 23:47:00,49.3,46.5,30.03,ENE,59,2.0,2.0,90,0.00,,,0.00,Wunderground v.1.15,2013-02-18 07:47:00,